sensor_id;sensor_type;location;lat;lon;timestamp;temperature;humidity
46440;DHT22;32138;50.966;6.968;2024-03-07T00:00:24;9.40;99.90
46440;DHT22;32138;50.966;6.968;2024-03-07T00:01:55;9.50;99.90
46440;DHT22;32138;50.966;6.968;2024-03-07T00:03:25;9.60;99.90
46440;DHT22;32138;50.966;6.968;2024-03-07T00:04:56;9.60;99.90
46440;DHT22;32138;50.966;6.968;2024-03-07T00:06:27;9.50;99.90
46440;DHT22;32138;50.966;6.968;2024-03-07T00:07:58;9.70;99.90
46440;DHT22;32138;50.966;6.968;2024-03-07T00:09:31;9.60;99.90
46440;DHT22;32138;50.966;6.968;2024-03-07T00:11:02;9.60;99.90
46440;DHT22;32138;50.966;6.968;2024-03-07T00:12:34;9.60;99.90
46440;DHT22;32138;50.966;6.968;2024-03-07T00:14:05;9.40;99.90
46440;DHT22;32138;50.966;6.968;2024-03-07T00:15:36;9.60;99.90
46440;DHT22;32138;50.966;6.968;2024-03-07T00:17:07;9.60;99.90
46440;DHT22;32138;50.966;6.968;2024-03-07T00:18:38;9.50;99.90
46440;DHT22;32138;50.966;6.968;2024-03-07T00:20:09;9.60;99.90
46440;DHT22;32138;50.966;6.968;2024-03-07T00:21:44;9.40;99.90
46440;DHT22;32138;50.966;6.968;2024-03-07T00:23:15;9.30;99.90
46440;DHT22;32138;50.966;6.968;2024-03-07T00:24:47;9.30;99.90
46440;DHT22;32138;50.966;6.968;2024-03-07T00:26:17;9.50;99.90
46440;DHT22;32138;50.966;6.968;2024-03-07T00:27:48;9.40;99.90
46440;DHT22;32138;50.966;6.968;2024-03-07T00:29:20;9.40;99.90
46440;DHT22;32138;50.966;6.968;2024-03-07T00:30:51;9.40;99.90
46440;DHT22;32138;50.966;6.968;2024-03-07T00:32:22;9.50;99.90
46440;DHT22;32138;50.966;6.968;2024-03-07T00:33:54;9.50;99.90
46440;DHT22;32138;50.966;6.968;2024-03-07T00:35:24;9.40;99.90
46440;DHT22;32138;50.966;6.968;2024-03-07T00:36:55;9.40;99.90
46440;DHT22;32138;50.966;6.968;2024-03-07T00:38:28;9.40;99.90
46440;DHT22;32138;50.966;6.968;2024-03-07T00:39:59;9.20;99.90
46440;DHT22;32138;50.966;6.968;2024-03-07T00:41:29;9.30;99.90
46440;DHT22;32138;50.966;6.968;2024-03-07T00:43:01;9.20;99.90
46440;DHT22;32138;50.966;6.968;2024-03-07T00:44:32;9.10;99.90
46440;DHT22;32138;50.966;6.968;2024-03-07T00:46:02;9.10;99.90
46440;DHT22;32138;50.966;6.968;2024-03-07T00:47:33;9.10;99.90
46440;DHT22;32138;50.966;6.968;2024-03-07T00:49:04;9.10;99.90
46440;DHT22;32138;50.966;6.968;2024-03-07T00:50:35;9.10;99.90
46440;DHT22;32138;50.966;6.968;2024-03-07T00:52:06;9.00;99.90
46440;DHT22;32138;50.966;6.968;2024-03-07T00:53:37;9.00;99.90
46440;DHT22;32138;50.966;6.968;2024-03-07T00:55:08;9.00;99.90
46440;DHT22;32138;50.966;6.968;2024-03-07T00:56:39;8.80;99.90
46440;DHT22;32138;50.966;6.968;2024-03-07T00:58:10;8.90;99.90
46440;DHT22;32138;50.966;6.968;2024-03-07T00:59:40;8.90;99.90
46440;DHT22;32138;50.966;6.968;2024-03-07T01:01:11;8.90;99.90
46440;DHT22;32138;50.966;6.968;2024-03-07T01:02:42;8.90;99.90
46440;DHT22;32138;50.966;6.968;2024-03-07T01:04:17;9.00;99.90
46440;DHT22;32138;50.966;6.968;2024-03-07T01:05:48;9.00;99.90
46440;DHT22;32138;50.966;6.968;2024-03-07T01:07:18;9.10;99.90
46440;DHT22;32138;50.966;6.968;2024-03-07T01:08:49;9.10;99.90
46440;DHT22;32138;50.966;6.968;2024-03-07T01:10:20;9.00;99.90
46440;DHT22;32138;50.966;6.968;2024-03-07T01:11:51;9.00;99.90
46440;DHT22;32138;50.966;6.968;2024-03-07T01:13:22;9.10;99.90
46440;DHT22;32138;50.966;6.968;2024-03-07T01:14:54;9.10;99.90
46440;DHT22;32138;50.966;6.968;2024-03-07T01:16:25;9.10;99.90
46440;DHT22;32138;50.966;6.968;2024-03-07T01:17:56;9.10;99.90
46440;DHT22;32138;50.966;6.968;2024-03-07T01:19:26;9.10;99.90
46440;DHT22;32138;50.966;6.968;2024-03-07T01:20:57;9.00;99.90
46440;DHT22;32138;50.966;6.968;2024-03-07T01:22:28;8.90;99.90
46440;DHT22;32138;50.966;6.968;2024-03-07T01:23:59;8.90;99.90
46440;DHT22;32138;50.966;6.968;2024-03-07T01:25:31;8.90;99.90
46440;DHT22;32138;50.966;6.968;2024-03-07T01:27:04;8.90;99.90
46440;DHT22;32138;50.966;6.968;2024-03-07T01:28:35;8.90;99.90
46440;DHT22;32138;50.966;6.968;2024-03-07T01:30:06;8.90;99.90
46440;DHT22;32138;50.966;6.968;2024-03-07T01:31:38;8.90;99.90
46440;DHT22;32138;50.966;6.968;2024-03-07T01:33:09;8.90;99.90
46440;DHT22;32138;50.966;6.968;2024-03-07T01:34:39;8.90;99.90
46440;DHT22;32138;50.966;6.968;2024-03-07T01:36:10;8.90;99.90
46440;DHT22;32138;50.966;6.968;2024-03-07T01:37:41;9.00;99.90
46440;DHT22;32138;50.966;6.968;2024-03-07T01:39:12;8.90;99.90
46440;DHT22;32138;50.966;6.968;2024-03-07T01:40:43;8.80;99.90
46440;DHT22;32138;50.966;6.968;2024-03-07T01:42:14;8.80;99.90
46440;DHT22;32138;50.966;6.968;2024-03-07T01:43:45;8.80;99.90
46440;DHT22;32138;50.966;6.968;2024-03-07T01:45:19;8.80;99.90
46440;DHT22;32138;50.966;6.968;2024-03-07T01:46:50;8.90;99.90
46440;DHT22;32138;50.966;6.968;2024-03-07T01:48:26;8.90;99.90
46440;DHT22;32138;50.966;6.968;2024-03-07T01:49:59;8.90;99.90
46440;DHT22;32138;50.966;6.968;2024-03-07T01:51:29;8.70;99.90
46440;DHT22;32138;50.966;6.968;2024-03-07T01:53:00;8.70;99.90
46440;DHT22;32138;50.966;6.968;2024-03-07T01:54:31;8.70;99.90
46440;DHT22;32138;50.966;6.968;2024-03-07T01:56:03;8.70;99.90
46440;DHT22;32138;50.966;6.968;2024-03-07T01:57:34;8.80;99.90
46440;DHT22;32138;50.966;6.968;2024-03-07T01:59:05;8.80;99.90
46440;DHT22;32138;50.966;6.968;2024-03-07T02:00:37;8.70;99.90
46440;DHT22;32138;50.966;6.968;2024-03-07T02:02:10;8.70;99.90
46440;DHT22;32138;50.966;6.968;2024-03-07T02:03:42;8.70;99.90
46440;DHT22;32138;50.966;6.968;2024-03-07T02:05:13;8.60;99.90
46440;DHT22;32138;50.966;6.968;2024-03-07T02:06:44;8.60;99.90
46440;DHT22;32138;50.966;6.968;2024-03-07T02:08:15;8.60;99.90
46440;DHT22;32138;50.966;6.968;2024-03-07T02:09:45;8.50;99.90
46440;DHT22;32138;50.966;6.968;2024-03-07T02:11:16;8.50;99.90
46440;DHT22;32138;50.966;6.968;2024-03-07T02:12:47;8.50;99.90
46440;DHT22;32138;50.966;6.968;2024-03-07T02:14:18;8.70;99.90
46440;DHT22;32138;50.966;6.968;2024-03-07T02:15:49;8.70;99.90
46440;DHT22;32138;50.966;6.968;2024-03-07T02:17:19;8.50;99.90
46440;DHT22;32138;50.966;6.968;2024-03-07T02:18:52;8.30;99.90
46440;DHT22;32138;50.966;6.968;2024-03-07T02:20:25;8.40;99.90
46440;DHT22;32138;50.966;6.968;2024-03-07T02:21:58;8.40;99.90
46440;DHT22;32138;50.966;6.968;2024-03-07T02:23:30;8.40;99.90
46440;DHT22;32138;50.966;6.968;2024-03-07T02:25:00;8.40;99.90
46440;DHT22;32138;50.966;6.968;2024-03-07T02:26:31;8.50;99.90
46440;DHT22;32138;50.966;6.968;2024-03-07T02:28:02;8.50;99.90
46440;DHT22;32138;50.966;6.968;2024-03-07T02:29:35;8.40;99.90
46440;DHT22;32138;50.966;6.968;2024-03-07T02:31:06;8.40;99.90
46440;DHT22;32138;50.966;6.968;2024-03-07T02:32:37;8.50;99.90
46440;DHT22;32138;50.966;6.968;2024-03-07T02:34:08;8.40;99.90
46440;DHT22;32138;50.966;6.968;2024-03-07T02:35:39;8.40;99.90
46440;DHT22;32138;50.966;6.968;2024-03-07T02:37:10;8.40;99.90
46440;DHT22;32138;50.966;6.968;2024-03-07T02:38:40;8.40;99.90
46440;DHT22;32138;50.966;6.968;2024-03-07T02:40:11;8.40;99.90
46440;DHT22;32138;50.966;6.968;2024-03-07T02:41:42;8.30;99.90
46440;DHT22;32138;50.966;6.968;2024-03-07T02:43:13;8.20;99.90
46440;DHT22;32138;50.966;6.968;2024-03-07T02:44:44;8.20;99.90
46440;DHT22;32138;50.966;6.968;2024-03-07T02:46:15;8.20;99.90
46440;DHT22;32138;50.966;6.968;2024-03-07T02:47:46;8.10;99.90
46440;DHT22;32138;50.966;6.968;2024-03-07T02:49:18;8.00;99.90
46440;DHT22;32138;50.966;6.968;2024-03-07T02:50:49;8.00;99.90
46440;DHT22;32138;50.966;6.968;2024-03-07T02:52:20;8.10;99.90
46440;DHT22;32138;50.966;6.968;2024-03-07T02:53:50;7.90;99.90
46440;DHT22;32138;50.966;6.968;2024-03-07T02:55:21;7.80;99.90
46440;DHT22;32138;50.966;6.968;2024-03-07T02:56:52;7.90;99.90
46440;DHT22;32138;50.966;6.968;2024-03-07T02:58:23;7.90;99.90
46440;DHT22;32138;50.966;6.968;2024-03-07T02:59:54;7.80;99.90
46440;DHT22;32138;50.966;6.968;2024-03-07T03:01:25;7.90;99.90
46440;DHT22;32138;50.966;6.968;2024-03-07T03:02:56;7.90;99.90
46440;DHT22;32138;50.966;6.968;2024-03-07T03:04:27;7.80;99.90
46440;DHT22;32138;50.966;6.968;2024-03-07T03:06:01;7.80;99.90
46440;DHT22;32138;50.966;6.968;2024-03-07T03:07:32;7.80;99.90
46440;DHT22;32138;50.966;6.968;2024-03-07T03:09:03;7.90;99.90
46440;DHT22;32138;50.966;6.968;2024-03-07T03:10:35;8.00;99.90
46440;DHT22;32138;50.966;6.968;2024-03-07T03:12:06;8.00;99.90
46440;DHT22;32138;50.966;6.968;2024-03-07T03:13:38;7.80;99.90
46440;DHT22;32138;50.966;6.968;2024-03-07T03:15:09;7.90;99.90
46440;DHT22;32138;50.966;6.968;2024-03-07T03:16:42;7.90;99.90
46440;DHT22;32138;50.966;6.968;2024-03-07T03:18:13;7.80;99.90
46440;DHT22;32138;50.966;6.968;2024-03-07T03:19:48;7.70;99.90
46440;DHT22;32138;50.966;6.968;2024-03-07T03:21:20;7.70;99.90
46440;DHT22;32138;50.966;6.968;2024-03-07T03:22:52;7.60;99.90
46440;DHT22;32138;50.966;6.968;2024-03-07T03:24:23;7.60;99.90
46440;DHT22;32138;50.966;6.968;2024-03-07T03:25:54;7.70;99.90
46440;DHT22;32138;50.966;6.968;2024-03-07T03:27:25;7.60;99.90
46440;DHT22;32138;50.966;6.968;2024-03-07T03:28:56;7.70;99.90
46440;DHT22;32138;50.966;6.968;2024-03-07T03:30:27;7.70;99.90
46440;DHT22;32138;50.966;6.968;2024-03-07T03:31:57;7.80;99.90
46440;DHT22;32138;50.966;6.968;2024-03-07T03:33:28;7.80;99.90
46440;DHT22;32138;50.966;6.968;2024-03-07T03:34:59;7.60;99.90
46440;DHT22;32138;50.966;6.968;2024-03-07T03:36:30;7.60;99.90
46440;DHT22;32138;50.966;6.968;2024-03-07T03:38:01;7.50;99.90
46440;DHT22;32138;50.966;6.968;2024-03-07T03:39:31;7.60;99.90
46440;DHT22;32138;50.966;6.968;2024-03-07T03:41:03;7.60;99.90
46440;DHT22;32138;50.966;6.968;2024-03-07T03:42:39;7.60;99.90
46440;DHT22;32138;50.966;6.968;2024-03-07T03:44:10;7.70;99.90
46440;DHT22;32138;50.966;6.968;2024-03-07T03:45:41;7.50;99.90
46440;DHT22;32138;50.966;6.968;2024-03-07T03:47:12;7.60;99.90
46440;DHT22;32138;50.966;6.968;2024-03-07T03:48:44;7.70;99.90
46440;DHT22;32138;50.966;6.968;2024-03-07T03:50:15;7.70;99.90
46440;DHT22;32138;50.966;6.968;2024-03-07T03:51:46;7.70;99.90
46440;DHT22;32138;50.966;6.968;2024-03-07T03:53:16;7.80;99.90
46440;DHT22;32138;50.966;6.968;2024-03-07T03:54:48;7.80;99.90
46440;DHT22;32138;50.966;6.968;2024-03-07T03:56:20;7.70;99.90
46440;DHT22;32138;50.966;6.968;2024-03-07T03:57:50;7.80;99.90
46440;DHT22;32138;50.966;6.968;2024-03-07T03:59:21;7.60;99.90
46440;DHT22;32138;50.966;6.968;2024-03-07T04:00:52;7.50;99.90
46440;DHT22;32138;50.966;6.968;2024-03-07T04:02:23;7.50;99.90
46440;DHT22;32138;50.966;6.968;2024-03-07T04:03:54;7.50;99.90
46440;DHT22;32138;50.966;6.968;2024-03-07T04:05:26;7.60;99.90
46440;DHT22;32138;50.966;6.968;2024-03-07T04:06:56;7.60;99.90
46440;DHT22;32138;50.966;6.968;2024-03-07T04:08:27;7.50;99.90
46440;DHT22;32138;50.966;6.968;2024-03-07T04:09:58;7.40;99.90
46440;DHT22;32138;50.966;6.968;2024-03-07T04:11:28;7.50;99.90
46440;DHT22;32138;50.966;6.968;2024-03-07T04:12:59;7.40;99.90
46440;DHT22;32138;50.966;6.968;2024-03-07T04:14:30;7.60;99.90
46440;DHT22;32138;50.966;6.968;2024-03-07T04:16:03;7.50;99.90
46440;DHT22;32138;50.966;6.968;2024-03-07T04:17:35;7.50;99.90
46440;DHT22;32138;50.966;6.968;2024-03-07T04:19:06;7.40;99.90
46440;DHT22;32138;50.966;6.968;2024-03-07T04:20:39;7.50;99.90
46440;DHT22;32138;50.966;6.968;2024-03-07T04:22:10;7.50;99.90
46440;DHT22;32138;50.966;6.968;2024-03-07T04:23:41;7.50;99.90
46440;DHT22;32138;50.966;6.968;2024-03-07T04:25:11;7.50;99.90
46440;DHT22;32138;50.966;6.968;2024-03-07T04:26:42;7.50;99.90
46440;DHT22;32138;50.966;6.968;2024-03-07T04:28:13;7.50;99.90
46440;DHT22;32138;50.966;6.968;2024-03-07T04:29:44;7.50;99.90
46440;DHT22;32138;50.966;6.968;2024-03-07T04:31:15;7.40;99.90
46440;DHT22;32138;50.966;6.968;2024-03-07T04:32:48;7.40;99.90
46440;DHT22;32138;50.966;6.968;2024-03-07T04:34:19;7.40;99.90
46440;DHT22;32138;50.966;6.968;2024-03-07T04:35:50;7.40;99.90
46440;DHT22;32138;50.966;6.968;2024-03-07T04:37:24;7.30;99.90
46440;DHT22;32138;50.966;6.968;2024-03-07T04:38:55;7.40;99.90
46440;DHT22;32138;50.966;6.968;2024-03-07T04:40:26;7.40;99.90
46440;DHT22;32138;50.966;6.968;2024-03-07T04:42:02;7.40;99.90
46440;DHT22;32138;50.966;6.968;2024-03-07T04:43:33;7.40;99.90
46440;DHT22;32138;50.966;6.968;2024-03-07T04:45:05;7.50;99.90
46440;DHT22;32138;50.966;6.968;2024-03-07T04:46:36;7.50;99.90
46440;DHT22;32138;50.966;6.968;2024-03-07T04:48:07;7.50;99.90
46440;DHT22;32138;50.966;6.968;2024-03-07T04:49:40;7.50;99.90
46440;DHT22;32138;50.966;6.968;2024-03-07T04:51:14;7.20;99.90
46440;DHT22;32138;50.966;6.968;2024-03-07T04:52:45;7.20;99.90
46440;DHT22;32138;50.966;6.968;2024-03-07T04:54:16;7.20;99.90
46440;DHT22;32138;50.966;6.968;2024-03-07T04:55:48;7.20;99.90
46440;DHT22;32138;50.966;6.968;2024-03-07T04:57:19;7.20;99.90
46440;DHT22;32138;50.966;6.968;2024-03-07T04:58:50;7.20;99.90
46440;DHT22;32138;50.966;6.968;2024-03-07T05:00:21;7.20;99.90
46440;DHT22;32138;50.966;6.968;2024-03-07T05:01:51;7.30;99.90
46440;DHT22;32138;50.966;6.968;2024-03-07T05:03:22;7.30;99.90
46440;DHT22;32138;50.966;6.968;2024-03-07T05:04:53;7.30;99.90
46440;DHT22;32138;50.966;6.968;2024-03-07T05:06:24;7.20;99.90
46440;DHT22;32138;50.966;6.968;2024-03-07T05:07:55;7.20;99.90
46440;DHT22;32138;50.966;6.968;2024-03-07T05:09:28;7.20;99.90
46440;DHT22;32138;50.966;6.968;2024-03-07T05:11:00;7.30;99.90
46440;DHT22;32138;50.966;6.968;2024-03-07T05:12:31;7.30;99.90
46440;DHT22;32138;50.966;6.968;2024-03-07T05:14:03;7.30;99.90
46440;DHT22;32138;50.966;6.968;2024-03-07T05:15:34;7.20;99.90
46440;DHT22;32138;50.966;6.968;2024-03-07T05:17:05;7.20;99.90
46440;DHT22;32138;50.966;6.968;2024-03-07T05:18:35;7.20;99.90
46440;DHT22;32138;50.966;6.968;2024-03-07T05:20:07;7.30;99.90
46440;DHT22;32138;50.966;6.968;2024-03-07T05:21:40;7.30;99.90
46440;DHT22;32138;50.966;6.968;2024-03-07T05:23:11;7.30;99.90
46440;DHT22;32138;50.966;6.968;2024-03-07T05:24:42;7.30;99.90
46440;DHT22;32138;50.966;6.968;2024-03-07T05:26:16;7.40;99.90
46440;DHT22;32138;50.966;6.968;2024-03-07T05:27:47;7.40;99.90
46440;DHT22;32138;50.966;6.968;2024-03-07T05:29:23;7.30;99.90
46440;DHT22;32138;50.966;6.968;2024-03-07T05:30:54;7.40;99.90
46440;DHT22;32138;50.966;6.968;2024-03-07T05:32:26;7.50;99.90
46440;DHT22;32138;50.966;6.968;2024-03-07T05:33:57;7.50;99.90
46440;DHT22;32138;50.966;6.968;2024-03-07T05:35:28;7.40;99.90
46440;DHT22;32138;50.966;6.968;2024-03-07T05:37:01;7.50;99.90
46440;DHT22;32138;50.966;6.968;2024-03-07T05:38:33;7.40;99.90
46440;DHT22;32138;50.966;6.968;2024-03-07T05:40:04;7.30;99.90
46440;DHT22;32138;50.966;6.968;2024-03-07T05:41:38;7.20;99.90
46440;DHT22;32138;50.966;6.968;2024-03-07T05:43:09;7.50;99.90
46440;DHT22;32138;50.966;6.968;2024-03-07T05:44:43;7.50;99.90
46440;DHT22;32138;50.966;6.968;2024-03-07T05:46:14;7.50;99.90
46440;DHT22;32138;50.966;6.968;2024-03-07T05:47:45;7.60;99.90
46440;DHT22;32138;50.966;6.968;2024-03-07T05:49:17;7.60;99.90
46440;DHT22;32138;50.966;6.968;2024-03-07T05:50:48;7.70;99.90
46440;DHT22;32138;50.966;6.968;2024-03-07T05:52:19;7.80;99.90
46440;DHT22;32138;50.966;6.968;2024-03-07T05:53:51;7.80;99.90
46440;DHT22;32138;50.966;6.968;2024-03-07T05:55:22;7.80;99.90
46440;DHT22;32138;50.966;6.968;2024-03-07T05:56:53;7.90;99.90
46440;DHT22;32138;50.966;6.968;2024-03-07T05:58:25;7.80;99.90
46440;DHT22;32138;50.966;6.968;2024-03-07T05:59:58;7.70;99.90
46440;DHT22;32138;50.966;6.968;2024-03-07T06:01:34;7.80;99.90
46440;DHT22;32138;50.966;6.968;2024-03-07T06:03:05;7.60;99.90
46440;DHT22;32138;50.966;6.968;2024-03-07T06:04:38;7.70;99.90
46440;DHT22;32138;50.966;6.968;2024-03-07T06:06:09;7.80;99.90
46440;DHT22;32138;50.966;6.968;2024-03-07T06:07:42;7.80;99.90
46440;DHT22;32138;50.966;6.968;2024-03-07T06:09:14;7.90;99.90
46440;DHT22;32138;50.966;6.968;2024-03-07T06:10:45;8.00;99.90
46440;DHT22;32138;50.966;6.968;2024-03-07T06:12:16;7.90;99.90
46440;DHT22;32138;50.966;6.968;2024-03-07T06:13:47;7.80;99.90
46440;DHT22;32138;50.966;6.968;2024-03-07T06:15:19;7.80;99.90
46440;DHT22;32138;50.966;6.968;2024-03-07T06:16:51;7.80;99.90
46440;DHT22;32138;50.966;6.968;2024-03-07T06:18:22;7.70;99.90
46440;DHT22;32138;50.966;6.968;2024-03-07T06:19:53;7.60;99.90
46440;DHT22;32138;50.966;6.968;2024-03-07T06:21:24;7.40;99.90
46440;DHT22;32138;50.966;6.968;2024-03-07T06:22:54;7.60;99.90
46440;DHT22;32138;50.966;6.968;2024-03-07T06:24:25;7.60;99.90
46440;DHT22;32138;50.966;6.968;2024-03-07T06:25:58;7.60;99.90
46440;DHT22;32138;50.966;6.968;2024-03-07T06:27:29;7.60;99.90
46440;DHT22;32138;50.966;6.968;2024-03-07T06:29:07;7.70;99.90
46440;DHT22;32138;50.966;6.968;2024-03-07T06:30:41;7.20;99.90
46440;DHT22;32138;50.966;6.968;2024-03-07T06:32:13;7.00;99.90
46440;DHT22;32138;50.966;6.968;2024-03-07T06:33:44;6.90;99.90
46440;DHT22;32138;50.966;6.968;2024-03-07T06:35:14;6.90;99.90
46440;DHT22;32138;50.966;6.968;2024-03-07T06:36:46;6.70;99.90
46440;DHT22;32138;50.966;6.968;2024-03-07T06:38:17;7.10;99.90
46440;DHT22;32138;50.966;6.968;2024-03-07T06:39:48;7.40;99.90
46440;DHT22;32138;50.966;6.968;2024-03-07T06:41:18;7.50;99.90
46440;DHT22;32138;50.966;6.968;2024-03-07T06:42:49;7.50;99.90
46440;DHT22;32138;50.966;6.968;2024-03-07T06:44:20;7.30;99.90
46440;DHT22;32138;50.966;6.968;2024-03-07T06:45:53;7.40;99.90
46440;DHT22;32138;50.966;6.968;2024-03-07T06:47:25;7.50;99.90
46440;DHT22;32138;50.966;6.968;2024-03-07T06:48:55;7.40;99.90
46440;DHT22;32138;50.966;6.968;2024-03-07T06:50:26;7.60;99.90
46440;DHT22;32138;50.966;6.968;2024-03-07T06:51:59;7.60;99.90
46440;DHT22;32138;50.966;6.968;2024-03-07T06:53:30;7.70;99.90
46440;DHT22;32138;50.966;6.968;2024-03-07T06:55:01;7.70;99.90
46440;DHT22;32138;50.966;6.968;2024-03-07T06:56:37;7.70;99.90
46440;DHT22;32138;50.966;6.968;2024-03-07T06:58:10;7.60;99.90
46440;DHT22;32138;50.966;6.968;2024-03-07T06:59:40;7.60;99.90
46440;DHT22;32138;50.966;6.968;2024-03-07T07:01:12;7.50;99.90
46440;DHT22;32138;50.966;6.968;2024-03-07T07:02:47;7.50;99.90
46440;DHT22;32138;50.966;6.968;2024-03-07T07:04:18;7.60;99.90
46440;DHT22;32138;50.966;6.968;2024-03-07T07:05:50;7.60;99.90
46440;DHT22;32138;50.966;6.968;2024-03-07T07:07:21;7.80;99.90
46440;DHT22;32138;50.966;6.968;2024-03-07T07:08:52;7.80;99.90
46440;DHT22;32138;50.966;6.968;2024-03-07T07:10:22;7.80;99.90
46440;DHT22;32138;50.966;6.968;2024-03-07T07:11:54;7.80;99.90
46440;DHT22;32138;50.966;6.968;2024-03-07T07:13:25;7.80;99.90
46440;DHT22;32138;50.966;6.968;2024-03-07T07:14:56;7.80;99.90
46440;DHT22;32138;50.966;6.968;2024-03-07T07:16:27;7.90;99.90
46440;DHT22;32138;50.966;6.968;2024-03-07T07:17:57;8.00;99.90
46440;DHT22;32138;50.966;6.968;2024-03-07T07:19:29;8.10;99.90
46440;DHT22;32138;50.966;6.968;2024-03-07T07:21:00;8.10;99.90
46440;DHT22;32138;50.966;6.968;2024-03-07T07:22:33;7.90;99.90
46440;DHT22;32138;50.966;6.968;2024-03-07T07:24:04;8.00;99.90
46440;DHT22;32138;50.966;6.968;2024-03-07T07:25:35;8.00;99.90
46440;DHT22;32138;50.966;6.968;2024-03-07T07:27:05;8.00;99.90
46440;DHT22;32138;50.966;6.968;2024-03-07T07:28:37;8.10;99.90
46440;DHT22;32138;50.966;6.968;2024-03-07T07:30:09;8.00;99.90
46440;DHT22;32138;50.966;6.968;2024-03-07T07:31:41;8.10;99.90
46440;DHT22;32138;50.966;6.968;2024-03-07T07:33:11;8.10;99.90
46440;DHT22;32138;50.966;6.968;2024-03-07T07:34:43;8.00;99.90
46440;DHT22;32138;50.966;6.968;2024-03-07T07:36:14;8.00;99.90
46440;DHT22;32138;50.966;6.968;2024-03-07T07:37:47;8.10;99.90
46440;DHT22;32138;50.966;6.968;2024-03-07T07:39:19;8.20;99.90
46440;DHT22;32138;50.966;6.968;2024-03-07T07:40:50;8.30;99.90
46440;DHT22;32138;50.966;6.968;2024-03-07T07:42:21;8.20;99.90
46440;DHT22;32138;50.966;6.968;2024-03-07T07:43:51;8.30;99.90
46440;DHT22;32138;50.966;6.968;2024-03-07T07:45:23;8.30;99.90
46440;DHT22;32138;50.966;6.968;2024-03-07T07:46:54;8.50;99.90
46440;DHT22;32138;50.966;6.968;2024-03-07T07:48:24;8.50;99.90
46440;DHT22;32138;50.966;6.968;2024-03-07T07:49:55;8.60;99.90
46440;DHT22;32138;50.966;6.968;2024-03-07T07:51:26;8.70;99.90
46440;DHT22;32138;50.966;6.968;2024-03-07T07:52:58;8.80;99.90
46440;DHT22;32138;50.966;6.968;2024-03-07T07:54:29;8.90;99.90
46440;DHT22;32138;50.966;6.968;2024-03-07T07:55:59;8.70;99.90
46440;DHT22;32138;50.966;6.968;2024-03-07T07:57:30;9.00;99.90
46440;DHT22;32138;50.966;6.968;2024-03-07T07:59:01;8.80;99.90
46440;DHT22;32138;50.966;6.968;2024-03-07T08:00:34;8.80;99.90
46440;DHT22;32138;50.966;6.968;2024-03-07T08:02:06;8.50;99.90
46440;DHT22;32138;50.966;6.968;2024-03-07T08:03:37;8.70;99.90
46440;DHT22;32138;50.966;6.968;2024-03-07T08:05:10;8.80;99.90
46440;DHT22;32138;50.966;6.968;2024-03-07T08:06:47;8.80;99.90
46440;DHT22;32138;50.966;6.968;2024-03-07T08:08:17;8.70;99.90
46440;DHT22;32138;50.966;6.968;2024-03-07T08:09:48;8.70;99.90
46440;DHT22;32138;50.966;6.968;2024-03-07T08:11:19;8.60;99.90
46440;DHT22;32138;50.966;6.968;2024-03-07T08:12:50;8.80;99.90
46440;DHT22;32138;50.966;6.968;2024-03-07T08:14:21;9.00;99.90
46440;DHT22;32138;50.966;6.968;2024-03-07T08:15:52;9.00;99.90
46440;DHT22;32138;50.966;6.968;2024-03-07T08:17:24;9.00;99.90
46440;DHT22;32138;50.966;6.968;2024-03-07T08:18:55;9.20;99.90
46440;DHT22;32138;50.966;6.968;2024-03-07T08:20:27;9.00;99.90
46440;DHT22;32138;50.966;6.968;2024-03-07T08:21:58;9.00;99.90
46440;DHT22;32138;50.966;6.968;2024-03-07T08:23:30;9.20;99.90
46440;DHT22;32138;50.966;6.968;2024-03-07T08:25:01;9.40;99.40
46440;DHT22;32138;50.966;6.968;2024-03-07T08:26:39;9.20;99.40
46440;DHT22;32138;50.966;6.968;2024-03-07T08:28:14;9.30;99.30
46440;DHT22;32138;50.966;6.968;2024-03-07T08:29:45;9.30;98.80
46440;DHT22;32138;50.966;6.968;2024-03-07T08:31:16;9.30;98.70
46440;DHT22;32138;50.966;6.968;2024-03-07T08:32:49;9.50;98.40
46440;DHT22;32138;50.966;6.968;2024-03-07T08:34:23;9.40;98.30
46440;DHT22;32138;50.966;6.968;2024-03-07T08:35:54;9.40;98.30
46440;DHT22;32138;50.966;6.968;2024-03-07T08:37:25;9.50;98.30
46440;DHT22;32138;50.966;6.968;2024-03-07T08:38:56;9.40;98.60
46440;DHT22;32138;50.966;6.968;2024-03-07T08:40:28;9.70;97.70
46440;DHT22;32138;50.966;6.968;2024-03-07T08:42:02;9.60;97.40
46440;DHT22;32138;50.966;6.968;2024-03-07T08:43:33;9.60;97.70
46440;DHT22;32138;50.966;6.968;2024-03-07T08:45:05;10.00;97.50
46440;DHT22;32138;50.966;6.968;2024-03-07T08:46:36;9.90;96.10
46440;DHT22;32138;50.966;6.968;2024-03-07T08:48:07;10.20;96.10
46440;DHT22;32138;50.966;6.968;2024-03-07T08:49:39;10.50;95.70
46440;DHT22;32138;50.966;6.968;2024-03-07T08:51:10;10.40;95.00
46440;DHT22;32138;50.966;6.968;2024-03-07T08:52:41;10.50;95.20
46440;DHT22;32138;50.966;6.968;2024-03-07T08:54:13;10.80;94.60
46440;DHT22;32138;50.966;6.968;2024-03-07T08:55:44;11.00;93.60
46440;DHT22;32138;50.966;6.968;2024-03-07T08:57:14;10.30;93.40
46440;DHT22;32138;50.966;6.968;2024-03-07T08:58:48;10.10;94.20
46440;DHT22;32138;50.966;6.968;2024-03-07T09:00:19;10.30;93.70
46440;DHT22;32138;50.966;6.968;2024-03-07T09:01:53;10.50;93.60
46440;DHT22;32138;50.966;6.968;2024-03-07T09:03:24;10.20;93.20
46440;DHT22;32138;50.966;6.968;2024-03-07T09:04:56;10.00;93.80
46440;DHT22;32138;50.966;6.968;2024-03-07T09:06:26;10.30;93.70
46440;DHT22;32138;50.966;6.968;2024-03-07T09:07:58;10.70;93.00
46440;DHT22;32138;50.966;6.968;2024-03-07T09:09:29;10.90;92.90
46440;DHT22;32138;50.966;6.968;2024-03-07T09:11:00;11.10;92.50
46440;DHT22;32138;50.966;6.968;2024-03-07T09:12:30;11.50;92.00
46440;DHT22;32138;50.966;6.968;2024-03-07T09:14:01;11.20;91.50
46440;DHT22;32138;50.966;6.968;2024-03-07T09:15:32;10.60;91.40
46440;DHT22;32138;50.966;6.968;2024-03-07T09:17:04;10.50;91.50
46440;DHT22;32138;50.966;6.968;2024-03-07T09:18:35;9.90;92.70
46440;DHT22;32138;50.966;6.968;2024-03-07T09:20:06;10.30;92.50
46440;DHT22;32138;50.966;6.968;2024-03-07T09:21:38;10.60;92.00
46440;DHT22;32138;50.966;6.968;2024-03-07T09:23:10;10.30;92.50
46440;DHT22;32138;50.966;6.968;2024-03-07T09:24:42;10.50;92.60
46440;DHT22;32138;50.966;6.968;2024-03-07T09:26:12;10.40;92.20
46440;DHT22;32138;50.966;6.968;2024-03-07T09:27:43;10.10;92.70
46440;DHT22;32138;50.966;6.968;2024-03-07T09:29:15;10.00;92.70
46440;DHT22;32138;50.966;6.968;2024-03-07T09:30:46;9.80;93.30
46440;DHT22;32138;50.966;6.968;2024-03-07T09:32:18;9.80;93.40
46440;DHT22;32138;50.966;6.968;2024-03-07T09:33:49;9.80;93.50
46440;DHT22;32138;50.966;6.968;2024-03-07T09:35:19;9.80;93.70
46440;DHT22;32138;50.966;6.968;2024-03-07T09:36:51;9.60;93.90
46440;DHT22;32138;50.966;6.968;2024-03-07T09:38:22;9.70;93.80
46440;DHT22;32138;50.966;6.968;2024-03-07T09:39:55;9.60;93.70
46440;DHT22;32138;50.966;6.968;2024-03-07T09:41:26;9.50;93.70
46440;DHT22;32138;50.966;6.968;2024-03-07T09:42:59;9.80;93.60
46440;DHT22;32138;50.966;6.968;2024-03-07T09:44:31;9.40;93.60
46440;DHT22;32138;50.966;6.968;2024-03-07T09:46:04;9.90;93.70